Time;durP1;ratioP1;P1;durP2;ratioP2;P2;SDS_P1;SDS_P2;PMS_P1;PMS_P2;Temp;Humidity;BMP_temperature;BMP_pressure;BME280_temperature;BME280_humidity;BME280_pressure;Samples;Min_cycle;Max_cycle;Signal;HPM_P1;HPM_P2
2021/04/26 00:02:52;;;;;;;8.05;4.72;;;22.70;29.30;;;;;;6231188;28;80439;-66
2021/04/26 00:05:53;;;;;;;9.43;5.53;;;22.70;29.30;;;;;;6232488;28;80569;-66
2021/04/26 00:08:54;;;;;;;7.50;4.60;;;22.70;29.40;;;;;;6213921;28;81677;-65
2021/04/26 00:11:54;;;;;;;9.93;5.47;;;22.70;29.10;;;;;;6231617;28;80283;-66
2021/04/26 00:14:55;;;;;;;10.18;5.40;;;22.70;29.20;;;;;;6225052;28;80327;-66
2021/04/26 00:17:55;;;;;;;11.07;5.25;;;22.70;29.00;;;;;;6228839;28;80588;-66
2021/04/26 00:20:56;;;;;;;9.90;5.45;;;22.70;28.90;;;;;;6231757;28;81300;-66
2021/04/26 00:23:56;;;;;;;9.52;5.65;;;22.70;29.00;;;;;;6231869;28;84516;-66
2021/04/26 00:26:57;;;;;;;18.02;6.00;;;22.70;29.10;;;;;;6230969;28;80275;-66
2021/04/26 00:29:57;;;;;;;11.10;5.88;;;22.70;29.10;;;;;;6230881;28;80765;-66
2021/04/26 00:32:58;;;;;;;12.93;6.35;;;22.70;28.90;;;;;;6233422;28;81637;-66
2021/04/26 00:35:58;;;;;;;9.85;5.60;;;22.70;28.80;;;;;;6215146;28;82435;-66
2021/04/26 00:38:59;;;;;;;10.95;5.82;;;22.70;29.10;;;;;;6233305;28;80817;-66
2021/04/26 00:41:59;;;;;;;10.40;6.28;;;22.70;28.80;;;;;;6212767;28;80393;-66
2021/04/26 00:45:00;;;;;;;11.02;6.45;;;22.70;28.90;;;;;;6209497;28;80690;-66
2021/04/26 00:48:00;;;;;;;12.10;6.50;;;22.70;28.90;;;;;;6231344;28;80233;-66
2021/04/26 00:51:01;;;;;;;14.77;7.53;;;22.70;28.90;;;;;;6231478;28;80570;-66
2021/04/26 00:54:01;;;;;;;10.85;5.97;;;22.70;28.60;;;;;;6231011;28;83124;-66
2021/04/26 00:57:02;;;;;;;12.30;6.90;;;22.70;28.80;;;;;;6215724;28;82420;-66
2021/04/26 01:00:03;;;;;;;14.63;7.03;;;22.70;28.90;;;;;;6231903;28;80419;-66
2021/04/26 01:03:05;;;;;;;14.02;7.45;;;22.70;28.60;;;;;;6214017;28;83052;-67
2021/04/26 01:06:08;;;;;;;16.63;8.18;;;22.70;28.70;;;;;;6206941;28;82906;-67
2021/04/26 01:09:09;;;;;;;14.05;7.65;;;22.70;28.70;;;;;;6226587;28;80539;-66
2021/04/26 01:12:17;;;;;;;14.90;7.50;;;22.70;28.60;;;;;;6215266;28;82555;-66
2021/04/26 01:15:18;;;;;;;13.65;7.38;;;22.70;29.20;;;;;;6232522;28;80546;-65
2021/04/26 01:18:19;;;;;;;15.70;8.40;;;22.70;28.50;;;;;;6215333;28;83057;-66
2021/04/26 01:21:20;;;;;;;15.77;8.25;;;22.70;28.10;;;;;;6231596;28;80095;-66
2021/04/26 01:24:21;;;;;;;19.10;9.25;;;22.70;28.60;;;;;;6212045;28;82621;-66
2021/04/26 01:27:24;;;;;;;17.63;9.23;;;22.70;28.10;;;;;;6210410;28;83607;-66
2021/04/26 01:30:27;;;;;;;18.27;9.93;;;22.60;28.30;;;;;;6211437;28;83059;-66
2021/04/26 01:33:47;;;;;;;21.10;9.93;;;22.60;28.10;;;;;;6210503;28;83101;-67
2021/04/26 01:36:48;;;;;;;18.98;10.02;;;22.60;28.20;;;;;;6228910;28;82947;-66
2021/04/26 01:39:49;;;;;;;18.30;9.95;;;22.60;28.20;;;;;;6208734;28;83385;-66
2021/04/26 01:42:49;;;;;;;17.30;9.40;;;22.60;28.30;;;;;;6225841;28;84035;-66
2021/04/26 01:45:50;;;;;;;18.58;9.98;;;22.60;28.60;;;;;;6210494;28;83365;-66
2021/04/26 01:48:51;;;;;;;20.08;10.77;;;22.60;28.00;;;;;;6227016;28;83107;-66
2021/04/26 01:51:51;;;;;;;17.88;9.93;;;22.60;28.10;;;;;;6208593;28;89053;-66
2021/04/26 01:54:53;;;;;;;18.42;10.07;;;22.60;28.30;;;;;;6210376;28;86268;-66
2021/04/26 01:57:54;;;;;;;19.83;10.80;;;22.60;28.30;;;;;;6224092;28;82754;-66
2021/04/26 02:00:56;;;;;;;17.10;10.25;;;22.60;28.40;;;;;;6225667;28;88313;-66
2021/04/26 02:03:57;;;;;;;22.00;10.98;;;22.60;28.30;;;;;;6208344;28;83000;-67
2021/04/26 02:07:25;;;;;;;20.65;11.43;;;22.60;28.10;;;;;;6196185;28;88913;-66
2021/04/26 02:10:38;;;;;;;22.13;11.27;;;22.60;28.20;;;;;;6224616;28;83118;-66
2021/04/26 02:13:38;;;;;;;19.67;11.18;;;22.60;27.90;;;;;;6227597;28;83474;-67
2021/04/26 02:16:40;;;;;;;21.20;11.05;;;22.60;28.40;;;;;;6209433;28;85302;-66
2021/04/26 02:19:40;;;;;;;24.90;11.63;;;22.60;28.40;;;;;;6221982;28;83479;-67
2021/04/26 02:22:41;;;;;;;22.42;11.15;;;22.60;28.20;;;;;;6209988;28;86313;-66
2021/04/26 02:25:41;;;;;;;25.65;12.02;;;22.60;28.10;;;;;;6226382;28;84743;-66
2021/04/26 02:28:43;;;;;;;20.25;11.45;;;22.60;28.40;;;;;;6192730;28;86127;-66
2021/04/26 02:31:44;;;;;;;19.88;11.55;;;22.60;28.40;;;;;;6206202;28;84087;-66
2021/04/26 02:34:45;;;;;;;23.23;11.55;;;22.60;28.00;;;;;;6209227;28;85504;-66
2021/04/26 02:37:46;;;;;;;20.63;11.23;;;22.60;28.30;;;;;;6207573;28;85870;-66
2021/04/26 02:40:47;;;;;;;24.05;11.07;;;22.60;28.20;;;;;;6210112;28;85896;-66
2021/04/26 02:43:48;;;;;;;20.33;10.50;;;22.50;28.20;;;;;;6208992;28;85266;-66
2021/04/26 02:46:48;;;;;;;22.35;10.48;;;22.60;28.20;;;;;;6209322;28;85217;-66
2021/04/26 02:49:50;;;;;;;22.48;10.82;;;22.50;27.80;;;;;;6223813;28;84236;-66
2021/04/26 02:52:50;;;;;;;22.10;11.65;;;22.50;28.20;;;;;;6210049;28;86017;-65
2021/04/26 02:55:51;;;;;;;20.92;11.55;;;22.50;28.00;;;;;;6210170;28;86320;-66
2021/04/26 02:58:52;;;;;;;23.67;11.35;;;22.60;27.80;;;;;;6209109;28;85742;-66
2021/04/26 03:02:00;;;;;;;21.27;11.73;;;22.50;28.00;;;;;;6208773;28;84675;-66
2021/04/26 03:05:30;;;;;;;18.63;11.00;;;22.50;28.00;;;;;;6208805;28;83250;-66
2021/04/26 03:08:31;;;;;;;22.23;11.57;;;22.50;27.90;;;;;;6208659;28;86148;-64
2021/04/26 03:11:31;;;;;;;20.63;11.25;;;22.50;27.90;;;;;;6227029;28;83938;-64
2021/04/26 03:14:32;;;;;;;21.55;10.73;;;22.50;27.90;;;;;;6224639;28;82918;-64
2021/04/26 03:17:32;;;;;;;21.10;10.63;;;22.50;28.20;;;;;;6225961;28;82964;-63
2021/04/26 03:20:37;;;;;;;20.05;10.52;;;22.50;28.40;;;;;;6224535;28;83940;-64
2021/04/26 03:23:45;;;;;;;22.23;11.20;;;22.50;28.50;;;;;;6224687;28;82867;-63
2021/04/26 03:26:47;;;;;;;21.45;11.10;;;22.50;28.60;;;;;;6225378;28;85830;-62
2021/04/26 03:29:47;;;;;;;22.13;10.43;;;22.60;28.90;;;;;;6224615;28;83222;-63
2021/04/26 03:32:49;;;;;;;20.50;10.02;;;22.60;28.80;;;;;;6202165;28;85911;-63
2021/04/26 03:35:50;;;;;;;21.05;10.43;;;22.60;28.70;;;;;;6193898;28;84170;-63
2021/04/26 03:38:51;;;;;;;20.52;11.38;;;22.50;28.90;;;;;;6209602;28;84146;-62
2021/04/26 03:41:55;;;;;;;17.42;9.35;;;22.50;29.00;;;;;;6204420;28;85494;-62
2021/04/26 03:44:56;;;;;;;21.90;11.13;;;22.50;29.30;;;;;;6211951;28;84088;-62
2021/04/26 03:48:12;;;;;;;17.07;9.60;;;22.50;29.20;;;;;;6219033;28;83168;-63
2021/04/26 03:51:33;;;;;;;21.23;11.38;;;22.50;29.30;;;;;;6191669;28;82792;-64
2021/04/26 03:54:52;;;;;;;22.88;10.73;;;22.50;29.30;;;;;;6224125;28;83139;-63
2021/04/26 03:57:52;;;;;;;20.75;11.10;;;22.50;29.30;;;;;;6225382;28;84177;-63
2021/04/26 04:00:53;;;;;;;20.20;10.90;;;22.50;29.40;;;;;;6223690;28;85045;-63
2021/04/26 04:03:54;;;;;;;21.35;11.52;;;22.50;29.40;;;;;;6223747;28;83966;-63
2021/04/26 04:06:56;;;;;;;22.30;10.93;;;22.50;29.80;;;;;;6225232;28;86083;-61
2021/04/26 04:10:16;;;;;;;25.90;10.88;;;22.50;29.90;;;;;;6224715;28;83185;-64
2021/04/26 04:13:36;;;;;;;20.08;11.05;;;22.50;30.00;;;;;;6191718;28;83327;-64
2021/04/26 04:16:37;;;;;;;22.77;11.80;;;22.50;30.00;;;;;;6222087;28;83035;-65
2021/04/26 04:19:38;;;;;;;24.52;11.27;;;22.50;29.90;;;;;;6207901;28;85671;-64
2021/04/26 04:22:44;;;;;;;22.40;12.02;;;22.50;29.70;;;;;;6204650;28;85606;-65
2021/04/26 04:25:45;;;;;;;31.52;12.50;;;22.50;29.90;;;;;;6222282;28;85624;-65
2021/04/26 04:28:46;;;;;;;25.95;12.75;;;22.50;29.60;;;;;;6224085;28;85349;-65
2021/04/26 04:32:09;;;;;;;24.63;11.80;;;22.50;29.80;;;;;;6219237;28;89820;-66
2021/04/26 04:35:42;;;;;;;27.67;12.45;;;22.50;30.00;;;;;;6224848;28;83751;-64
2021/04/26 04:39:03;;;;;;;24.70;12.27;;;22.50;30.00;;;;;;6183830;28;83744;-63
2021/04/26 04:42:29;;;;;;;;;;;22.60;30.50;;;;;;6225216;28;83009;-66
2021/04/26 04:45:31;;;;;;;26.33;13.38;;;22.60;30.00;;;;;;6233050;28;85577;-62
2021/04/26 04:48:50;;;;;;;22.67;12.20;;;22.60;30.00;;;;;;6234207;28;84015;-64
2021/04/26 04:51:54;;;;;;;25.50;12.32;;;22.60;29.80;;;;;;6217162;27;84183;-66
2021/04/26 04:54:55;;;;;;;25.33;13.20;;;22.60;29.80;;;;;;6233651;28;83263;-66
2021/04/26 04:57:56;;;;;;;35.78;13.02;;;22.60;29.90;;;;;;6205142;28;85454;-66
2021/04/26 05:00:57;;;;;;;28.15;12.82;;;22.60;30.00;;;;;;6214322;28;85616;-66
2021/04/26 05:04:16;;;;;;;25.10;13.07;;;22.60;29.90;;;;;;6230687;28;83431;-66
2021/04/26 05:07:35;;;;;;;27.17;13.05;;;22.60;30.20;;;;;;6227704;28;82737;-66
2021/04/26 05:10:54;;;;;;;29.98;14.55;;;22.60;30.50;;;;;;6217536;28;87345;-66
2021/04/26 05:14:14;;;;;;;31.95;13.98;;;22.60;29.70;;;;;;6231759;28;83414;-67
2021/04/26 05:17:14;;;;;;;24.67;13.68;;;22.60;29.70;;;;;;6228193;28;83534;-66
2021/04/26 05:20:15;;;;;;;29.42;14.55;;;22.70;30.00;;;;;;6230226;28;83327;-67
2021/04/26 05:23:15;;;;;;;27.25;13.98;;;22.60;29.80;;;;;;6213156;28;85746;-66
2021/04/26 05:26:16;;;;;;;28.00;14.57;;;22.70;30.00;;;;;;6227416;28;85451;-67
2021/04/26 05:29:17;;;;;;;25.65;13.88;;;22.70;29.80;;;;;;6210965;28;85347;-65
2021/04/26 05:32:18;;;;;;;24.52;13.38;;;22.60;29.80;;;;;;6215619;28;86313;-68
2021/04/26 05:35:20;;;;;;;28.40;14.50;;;22.70;30.10;;;;;;6209916;28;85079;-65
2021/04/26 05:38:23;;;;;;;29.98;15.05;;;22.70;30.20;;;;;;6213172;28;85533;-65
2021/04/26 05:41:24;;;;;;;30.73;13.98;;;22.70;30.20;;;;;;6202472;28;85910;-65
2021/04/26 05:44:25;;;;;;;33.70;15.10;;;22.80;30.20;;;;;;6229435;28;82876;-65
2021/04/26 05:47:46;;;;;;;27.92;14.70;;;22.80;30.40;;;;;;6209638;28;85401;-62
2021/04/26 05:50:46;;;;;;;30.15;13.98;;;22.80;30.50;;;;;;6229867;28;87065;-64
2021/04/26 05:53:47;;;;;;;33.20;17.08;;;22.70;30.80;;;;;;6233210;28;83303;-66
2021/04/26 05:56:47;;;;;;;31.15;15.27;;;22.60;28.50;;;;;;6228263;28;84170;-64
2021/04/26 05:59:48;;;;;;;32.05;15.82;;;22.60;29.10;;;;;;6230726;28;83042;-67
2021/04/26 06:02:48;;;;;;;33.35;14.63;;;22.60;29.20;;;;;;6227679;28;82879;-64
2021/04/26 06:05:49;;;;;;;32.35;14.93;;;22.60;29.40;;;;;;6232440;28;83127;-66
2021/04/26 06:08:50;;;;;;;30.70;13.95;;;22.50;29.40;;;;;;6230897;28;83889;-62
2021/04/26 06:11:50;;;;;;;28.30;14.48;;;22.60;29.80;;;;;;6223067;28;83060;-65
2021/04/26 06:14:51;;;;;;;30.77;13.45;;;22.60;29.20;;;;;;6229944;28;83333;-64
2021/04/26 06:17:51;;;;;;;32.63;14.52;;;22.60;29.30;;;;;;6199366;28;83963;-64
2021/04/26 06:20:52;;;;;;;27.88;14.70;;;22.60;29.20;;;;;;6223348;28;85712;-63
2021/04/26 06:23:53;;;;;;;28.65;14.25;;;22.60;29.50;;;;;;6224646;28;83085;-64
2021/04/26 06:26:53;;;;;;;28.33;14.05;;;22.60;29.80;;;;;;6231860;28;85419;-63
2021/04/26 06:29:54;;;;;;;25.70;14.57;;;22.70;29.40;;;;;;6223129;28;84405;-65
2021/04/26 06:32:54;;;;;;;29.38;14.75;;;22.60;30.20;;;;;;6223525;28;84174;-64
2021/04/26 06:35:55;;;;;;;27.17;14.02;;;22.60;29.50;;;;;;6225364;28;83102;-64
2021/04/26 06:38:55;;;;;;;26.67;14.02;;;22.70;29.50;;;;;;6228267;28;83138;-64
2021/04/26 06:41:57;;;;;;;23.27;13.02;;;22.60;29.60;;;;;;6223945;28;84575;-64
2021/04/26 06:44:57;;;;;;;38.15;15.40;;;22.60;29.10;;;;;;6225022;28;84167;-65
2021/04/26 06:47:58;;;;;;;31.67;14.75;;;22.60;29.20;;;;;;6227050;28;83219;-66
2021/04/26 06:50:58;;;;;;;30.15;14.25;;;22.60;29.30;;;;;;6223848;28;82681;-64
2021/04/26 06:53:59;;;;;;;28.20;13.25;;;22.60;29.10;;;;;;6203221;28;83273;-65
2021/04/26 06:56:59;;;;;;;27.65;14.77;;;22.70;29.30;;;;;;6225883;28;84175;-62
2021/04/26 07:00:00;;;;;;;31.20;13.93;;;22.60;28.90;;;;;;6233181;28;83601;-62
2021/04/26 07:03:00;;;;;;;25.83;13.45;;;22.70;29.10;;;;;;6229950;28;82852;-65
2021/04/26 07:06:01;;;;;;;27.40;13.00;;;22.70;29.00;;;;;;6226206;28;82935;-64
2021/04/26 07:09:02;;;;;;;27.15;13.90;;;22.70;28.90;;;;;;6230586;27;83093;-64
2021/04/26 07:12:02;;;;;;;28.60;13.20;;;22.70;29.10;;;;;;6230774;28;83655;-63
2021/04/26 07:15:03;;;;;;;23.98;12.55;;;22.70;29.00;;;;;;6208434;28;83308;-63
2021/04/26 07:18:03;;;;;;;25.77;11.88;;;22.70;28.80;;;;;;6233354;28;83090;-64
2021/04/26 07:21:04;;;;;;;27.02;13.70;;;22.70;29.10;;;;;;6230057;28;86586;-64
2021/04/26 07:24:04;;;;;;;26.17;12.60;;;22.70;29.30;;;;;;6229593;28;83590;-65
2021/04/26 07:27:05;;;;;;;22.30;10.98;;;22.80;29.80;;;;;;6229489;28;83444;-65
2021/04/26 07:30:06;;;;;;;21.77;11.52;;;22.80;30.80;;;;;;6230792;28;84602;-64
2021/04/26 07:33:06;;;;;;;21.13;11.10;;;22.80;30.70;;;;;;6220453;28;85592;-65
2021/04/26 07:36:07;;;;;;;24.98;11.93;;;22.80;29.50;;;;;;6208869;28;85130;-65
2021/04/26 07:39:07;;;;;;;21.42;11.43;;;22.80;29.30;;;;;;6226010;28;83990;-64
2021/04/26 07:42:08;;;;;;;20.50;10.15;;;22.80;29.30;;;;;;6192407;28;83297;-64
2021/04/26 07:45:08;;;;;;;21.10;10.25;;;22.80;29.30;;;;;;6228929;28;83089;-65
2021/04/26 07:48:09;;;;;;;21.08;9.90;;;22.80;29.50;;;;;;6231289;28;84072;-65
2021/04/26 07:51:09;;;;;;;18.95;10.30;;;22.80;29.60;;;;;;6211311;28;85909;-64
2021/04/26 07:54:10;;;;;;;20.17;9.50;;;22.90;29.10;;;;;;6230294;28;82964;-64
2021/04/26 07:57:10;;;;;;;19.75;9.57;;;22.90;29.70;;;;;;6224653;28;83048;-66
2021/04/26 08:00:11;;;;;;;23.70;10.32;;;22.90;29.30;;;;;;6180832;28;81596;-65
2021/04/26 08:03:11;;;;;;;17.15;9.60;;;22.80;29.90;;;;;;6217579;28;82987;-65
2021/04/26 08:06:12;;;;;;;18.63;8.95;;;22.80;29.20;;;;;;6221651;28;82769;-64
2021/04/26 08:09:12;;;;;;;16.52;8.18;;;22.80;29.30;;;;;;6211011;28;81579;-63
2021/04/26 08:12:13;;;;;;;16.70;8.05;;;22.90;29.30;;;;;;6220223;28;87654;-65
2021/04/26 08:15:14;;;;;;;15.75;8.45;;;22.90;29.90;;;;;;6228864;28;80547;-66
2021/04/26 08:18:15;;;;;;;19.92;7.57;;;22.90;29.30;;;;;;6224846;28;80928;-66
2021/04/26 08:21:15;;;;;;;16.05;8.00;;;22.90;29.30;;;;;;6230439;27;80808;-66
2021/04/26 08:24:16;;;;;;;14.55;6.97;;;22.90;29.20;;;;;;6211668;28;83207;-68
2021/04/26 08:27:16;;;;;;;24.63;8.15;;;22.90;29.20;;;;;;6231662;28;81886;-65
2021/04/26 08:30:17;;;;;;;16.10;7.00;;;22.90;29.50;;;;;;6231412;28;81644;-65
2021/04/26 08:33:18;;;;;;;19.48;7.35;;;22.80;29.60;;;;;;6212562;28;80852;-64
2021/04/26 08:36:18;;;;;;;12.52;6.35;;;22.80;29.40;;;;;;6211153;28;83318;-65
2021/04/26 08:39:19;;;;;;;14.27;6.63;;;22.80;29.60;;;;;;6233426;28;80408;-65
2021/04/26 08:42:19;;;;;;;11.40;6.00;;;22.80;29.40;;;;;;6228824;28;80454;-64
2021/04/26 08:45:20;;;;;;;10.80;6.18;;;22.80;29.70;;;;;;6241156;28;80525;-64
2021/04/26 08:48:21;;;;;;;12.70;6.60;;;22.80;29.50;;;;;;6227747;28;80220;-63
2021/04/26 08:51:21;;;;;;;12.90;5.80;;;22.80;29.10;;;;;;6235327;28;80382;-63
2021/04/26 08:54:22;;;;;;;10.38;6.20;;;22.80;29.40;;;;;;6183774;28;80687;-65
2021/04/26 08:57:23;;;;;;;10.13;5.68;;;22.80;29.40;;;;;;6244427;28;80605;-64
2021/04/26 09:00:23;;;;;;;10.85;5.85;;;22.80;29.30;;;;;;6229362;28;80542;-65
2021/04/26 09:03:24;;;;;;;11.73;5.88;;;22.80;29.40;;;;;;6236836;28;80580;-66
2021/04/26 09:06:24;;;;;;;9.32;5.70;;;22.80;29.00;;;;;;6224511;28;80574;-65
2021/04/26 09:09:25;;;;;;;10.13;5.57;;;22.80;29.40;;;;;;6168868;28;80967;-65
2021/04/26 09:12:25;;;;;;;9.52;5.65;;;22.90;29.40;;;;;;6234011;28;81910;-65
2021/04/26 09:15:26;;;;;;;10.32;5.07;;;22.90;29.20;;;;;;6232015;28;80908;-65
2021/04/26 09:18:26;;;;;;;9.82;5.38;;;22.80;30.00;;;;;;6234719;28;84569;-65
2021/04/26 09:21:27;;;;;;;11.18;5.63;;;22.80;29.40;;;;;;6236048;28;80432;-65
2021/04/26 09:24:37;;;;;;;11.60;5.30;;;22.80;29.30;;;;;;6239941;28;80558;-65
2021/04/26 09:27:37;;;;;;;9.82;4.85;;;22.80;29.60;;;;;;6238388;28;80880;-64
2021/04/26 09:30:39;;;;;;;7.57;4.20;;;22.80;29.60;;;;;;6231646;27;82618;-64
2021/04/26 09:33:40;;;;;;;9.73;4.55;;;22.80;29.40;;;;;;6234561;28;80800;-65
2021/04/26 09:36:40;;;;;;;11.25;5.03;;;22.80;29.40;;;;;;6234113;28;80517;-66
2021/04/26 09:39:41;;;;;;;10.27;5.03;;;22.80;29.20;;;;;;6214567;28;80986;-64
2021/04/26 09:42:42;;;;;;;9.65;4.65;;;22.80;28.70;;;;;;6237080;28;80615;-64
2021/04/26 09:45:44;;;;;;;10.95;3.67;;;22.80;28.90;;;;;;6239977;28;80555;-64
2021/04/26 09:48:45;;;;;;;7.65;3.90;;;22.80;28.90;;;;;;6226194;28;80635;-65
2021/04/26 09:51:45;;;;;;;8.02;3.85;;;22.80;29.00;;;;;;6232034;28;81757;-65
2021/04/26 09:54:46;;;;;;;9.80;4.00;;;22.90;29.10;;;;;;6232575;28;80402;-65
2021/04/26 09:57:47;;;;;;;7.45;4.10;;;22.90;28.70;;;;;;6233298;28;81135;-65
2021/04/26 10:00:47;;;;;;;4.78;3.33;;;22.90;29.00;;;;;;6231684;28;80806;-65
2021/04/26 10:03:48;;;;;;;5.97;3.60;;;22.90;28.90;;;;;;6228713;28;81825;-65
2021/04/26 10:06:48;;;;;;;11.18;4.32;;;22.90;29.00;;;;;;6230669;28;83744;-64
2021/04/26 10:09:49;;;;;;;6.78;3.30;;;22.90;29.20;;;;;;6229222;27;80657;-67
2021/04/26 10:12:49;;;;;;;6.22;3.38;;;22.90;29.10;;;;;;6228606;28;80686;-66
2021/04/26 10:15:50;;;;;;;6.78;3.65;;;22.90;29.40;;;;;;6230179;28;81506;-67
2021/04/26 10:18:50;;;;;;;16.95;3.47;;;22.90;29.20;;;;;;6225334;28;80879;-66
2021/04/26 10:21:51;;;;;;;7.72;3.15;;;22.90;29.20;;;;;;6232287;28;80425;-67
2021/04/26 10:24:52;;;;;;;5.45;3.38;;;22.90;29.30;;;;;;6224825;28;82199;-65
2021/04/26 10:27:52;;;;;;;8.90;3.45;;;22.90;29.20;;;;;;6235980;28;81141;-67
2021/04/26 10:30:53;;;;;;;6.30;3.22;;;22.90;29.10;;;;;;6229775;28;84222;-66
2021/04/26 10:33:53;;;;;;;5.13;3.22;;;22.90;29.10;;;;;;6212690;28;81731;-67
2021/04/26 10:36:54;;;;;;;4.50;3.05;;;22.90;28.90;;;;;;6201704;28;81069;-68
2021/04/26 10:39:54;;;;;;;5.90;3.22;;;23.00;29.40;;;;;;6230499;28;83135;-67
2021/04/26 10:42:55;;;;;;;5.68;3.22;;;23.00;28.70;;;;;;6227398;28;80680;-67
2021/04/26 10:45:55;;;;;;;7.57;3.47;;;22.90;28.20;;;;;;6229300;28;80840;-66
2021/04/26 10:48:56;;;;;;;5.75;2.90;;;22.90;27.90;;;;;;6224925;28;81095;-66
2021/04/26 10:51:57;;;;;;;4.38;2.80;;;22.90;27.40;;;;;;6226568;28;80406;-67
2021/04/26 10:54:57;;;;;;;5.43;2.72;;;22.80;27.00;;;;;;6214947;28;80745;-66
2021/04/26 10:58:02;;;;;;;4.80;2.72;;;22.80;26.60;;;;;;6221048;28;83129;-66
2021/04/26 11:01:02;;;;;;;11.45;3.65;;;22.80;27.00;;;;;;6224913;28;80801;-65
2021/04/26 11:04:03;;;;;;;13.57;6.63;;;22.80;26.40;;;;;;6228713;28;81159;-65
2021/04/26 11:07:04;;;;;;;19.38;10.10;;;22.80;26.40;;;;;;6226306;28;80362;-65
2021/04/26 11:10:05;;;;;;;21.95;12.15;;;22.70;26.40;;;;;;6227709;28;83293;-64
2021/04/26 11:13:05;;;;;;;22.70;12.15;;;22.70;26.10;;;;;;6226373;28;83972;-65
2021/04/26 11:16:06;;;;;;;21.17;10.30;;;22.70;26.40;;;;;;6223671;28;84426;-65
2021/04/26 11:19:09;;;;;;;15.75;9.45;;;22.70;26.20;;;;;;6219453;28;83198;-65
2021/04/26 11:22:10;;;;;;;13.35;8.00;;;22.70;26.00;;;;;;6235827;28;82894;-65
2021/04/26 11:25:10;;;;;;;10.23;6.40;;;22.70;26.30;;;;;;6230540;28;80275;-64
2021/04/26 11:28:12;;;;;;;10.02;6.82;;;22.80;26.30;;;;;;6219502;28;81818;-65
2021/04/26 11:31:13;;;;;;;9.45;5.22;;;22.80;26.20;;;;;;6216820;28;80308;-66
2021/04/26 11:34:13;;;;;;;11.40;5.97;;;22.80;26.60;;;;;;6192572;28;80516;-64
2021/04/26 11:37:15;;;;;;;9.32;4.95;;;22.80;26.10;;;;;;6218529;28;81017;-65
2021/04/26 11:40:15;;;;;;;7.00;4.25;;;22.80;26.40;;;;;;6228968;28;80686;-64
2021/04/26 11:43:16;;;;;;;7.63;4.72;;;22.80;26.40;;;;;;6227777;28;80493;-64
2021/04/26 11:46:16;;;;;;;7.78;4.38;;;22.80;26.00;;;;;;6233976;28;81632;-65
2021/04/26 11:49:17;;;;;;;7.40;4.97;;;22.80;25.80;;;;;;6226003;28;80691;-64
2021/04/26 11:52:17;;;;;;;7.00;3.70;;;22.80;26.40;;;;;;6234702;28;81749;-66
2021/04/26 11:55:18;;;;;;;7.45;4.30;;;22.90;26.40;;;;;;6232265;28;81534;-65
2021/04/26 11:58:18;;;;;;;7.18;3.97;;;22.90;26.80;;;;;;6229460;28;80829;-66
2021/04/26 12:01:19;;;;;;;7.57;4.32;;;22.90;27.20;;;;;;6231633;28;80661;-66
2021/04/26 12:04:19;;;;;;;6.15;3.58;;;22.90;27.20;;;;;;6226483;28;80285;-67
2021/04/26 12:07:20;;;;;;;7.80;3.30;;;22.90;27.20;;;;;;6227294;28;83202;-66
2021/04/26 12:10:21;;;;;;;7.93;3.70;;;22.90;27.00;;;;;;6230250;28;80472;-66
2021/04/26 12:13:21;;;;;;;5.80;3.33;;;22.90;27.10;;;;;;6233530;28;81657;-66
2021/04/26 12:16:22;;;;;;;8.63;3.65;;;22.90;26.50;;;;;;6235285;28;83225;-66
2021/04/26 12:19:22;;;;;;;7.25;3.85;;;22.90;26.50;;;;;;6233622;28;81836;-67
2021/04/26 12:22:23;;;;;;;6.93;3.40;;;22.90;26.70;;;;;;6220971;28;81686;-67
2021/04/26 12:25:23;;;;;;;6.35;3.50;;;23.00;26.80;;;;;;6233445;28;80567;-66
2021/04/26 12:28:24;;;;;;;6.72;3.72;;;23.00;26.90;;;;;;6227307;28;80461;-65
2021/04/26 12:31:24;;;;;;;6.55;3.50;;;23.00;27.10;;;;;;6228306;28;80307;-65
2021/04/26 12:34:25;;;;;;;5.72;3.30;;;23.00;26.90;;;;;;6227877;28;82945;-65
2021/04/26 12:37:25;;;;;;;4.85;3.10;;;23.00;26.80;;;;;;6209104;28;81030;-64
2021/04/26 12:40:26;;;;;;;6.05;3.58;;;23.00;26.50;;;;;;6227979;28;80486;-65
2021/04/26 12:43:27;;;;;;;7.80;3.60;;;23.00;27.20;;;;;;6227590;28;81465;-64
2021/04/26 12:46:27;;;;;;;5.95;3.13;;;23.10;26.90;;;;;;6228432;28;80619;-65
2021/04/26 12:49:28;;;;;;;5.43;3.13;;;23.10;26.90;;;;;;6227075;28;80748;-65
2021/04/26 12:52:28;;;;;;;5.75;3.08;;;23.10;26.90;;;;;;6228715;28;80956;-65
2021/04/26 12:55:29;;;;;;;4.40;2.83;;;23.00;26.90;;;;;;6226405;28;80720;-64
2021/04/26 12:58:29;;;;;;;5.05;2.80;;;23.10;26.80;;;;;;6225650;28;81523;-66
2021/04/26 13:01:30;;;;;;;5.97;2.83;;;23.00;26.90;;;;;;6230393;28;80220;-65
2021/04/26 13:04:30;;;;;;;4.13;2.30;;;23.10;26.90;;;;;;6228732;28;81463;-66
2021/04/26 13:07:31;;;;;;;5.80;2.83;;;23.10;26.90;;;;;;6229341;28;80883;-67
2021/04/26 13:10:31;;;;;;;4.72;2.75;;;23.10;27.30;;;;;;6230084;28;81587;-65
2021/04/26 13:13:32;;;;;;;3.25;2.60;;;23.10;27.60;;;;;;6228217;27;81581;-64
2021/04/26 13:16:32;;;;;;;4.38;2.67;;;23.10;27.70;;;;;;6229844;28;81384;-65
2021/04/26 13:19:33;;;;;;;4.65;2.70;;;23.20;28.00;;;;;;6231155;28;81722;-65
2021/04/26 13:22:34;;;;;;;4.90;2.55;;;23.20;28.10;;;;;;6226643;28;80867;-65
2021/04/26 13:25:34;;;;;;;4.90;2.75;;;23.20;28.10;;;;;;6229428;28;81562;-64
2021/04/26 13:28:35;;;;;;;7.25;2.40;;;23.30;28.40;;;;;;6222159;28;81526;-65
2021/04/26 13:31:35;;;;;;;4.90;2.67;;;23.30;28.30;;;;;;6227058;28;81565;-65
2021/04/26 13:34:36;;;;;;;6.88;2.58;;;23.30;28.30;;;;;;6211785;28;83205;-66
2021/04/26 13:37:36;;;;;;;5.28;2.20;;;23.30;28.40;;;;;;6231841;27;81935;-66
2021/04/26 13:40:37;;;;;;;5.53;2.30;;;23.30;28.20;;;;;;6229538;28;81306;-64
2021/04/26 13:43:37;;;;;;;4.20;2.58;;;23.30;28.50;;;;;;6225228;28;80679;-64
2021/04/26 13:46:38;;;;;;;4.32;2.67;;;23.30;28.80;;;;;;6191535;27;81322;-65
2021/04/26 13:49:38;;;;;;;2.88;2.03;;;23.30;28.40;;;;;;6229872;28;80829;-66
2021/04/26 13:52:39;;;;;;;3.28;1.95;;;23.30;28.40;;;;;;6230237;28;82260;-65
2021/04/26 13:55:39;;;;;;;4.40;2.38;;;23.40;28.60;;;;;;6215103;28;81292;-64
2021/04/26 13:58:40;;;;;;;7.13;2.55;;;23.30;29.10;;;;;;6230674;28;80755;-64
2021/04/26 14:01:40;;;;;;;3.30;2.22;;;23.40;28.90;;;;;;6216419;28;80711;-64
2021/04/26 14:04:41;;;;;;;2.58;2.03;;;23.40;29.00;;;;;;6207072;28;82109;-66
2021/04/26 14:07:41;;;;;;;5.13;2.20;;;23.40;29.20;;;;;;6232107;28;80504;-65
2021/04/26 14:10:42;;;;;;;3.40;2.13;;;23.40;29.30;;;;;;6199886;28;80744;-65
2021/04/26 14:13:42;;;;;;;7.57;2.78;;;23.40;29.30;;;;;;6233159;28;80938;-64
2021/04/26 14:16:43;;;;;;;6.32;2.22;;;23.40;29.30;;;;;;6235310;28;81211;-66
2021/04/26 14:19:44;;;;;;;3.58;2.33;;;23.40;29.30;;;;;;6233996;28;80330;-65
2021/04/26 14:22:44;;;;;;;8.63;2.17;;;23.30;29.90;;;;;;6232667;28;80509;-64
2021/04/26 14:25:45;;;;;;;4.35;2.17;;;23.30;29.20;;;;;;6233872;28;80638;-66
2021/04/26 14:28:45;;;;;;;6.72;2.13;;;23.30;29.40;;;;;;6221193;28;80811;-65
2021/04/26 14:31:46;;;;;;;10.68;1.92;;;23.30;29.00;;;;;;6228995;28;80595;-65
2021/04/26 14:34:46;;;;;;;6.13;2.20;;;23.30;29.10;;;;;;6226126;28;80474;-64
2021/04/26 14:37:47;;;;;;;4.38;2.25;;;23.30;29.30;;;;;;6232370;28;80487;-65
2021/04/26 14:40:47;;;;;;;6.00;2.47;;;23.30;29.00;;;;;;6228286;28;80992;-64
2021/04/26 14:43:48;;;;;;;2.42;1.95;;;23.30;29.10;;;;;;6229646;28;81784;-64
2021/04/26 14:46:48;;;;;;;6.97;2.13;;;23.30;29.10;;;;;;6230388;28;80562;-64
2021/04/26 14:49:49;;;;;;;5.50;2.22;;;23.30;29.10;;;;;;6236973;28;81539;-65
2021/04/26 14:52:49;;;;;;;3.47;2.05;;;23.30;29.50;;;;;;6236699;28;80278;-65
2021/04/26 14:55:50;;;;;;;2.72;2.05;;;23.30;28.90;;;;;;6213140;28;81700;-64
2021/04/26 14:58:50;;;;;;;4.03;2.53;;;23.30;28.80;;;;;;6233150;28;80339;-68
2021/04/26 15:01:51;;;;;;;3.40;2.33;;;23.30;28.80;;;;;;6235432;28;81940;-66
2021/04/26 15:04:51;;;;;;;5.07;2.75;;;23.30;28.70;;;;;;6227273;28;81497;-63
2021/04/26 15:07:52;;;;;;;5.40;2.33;;;23.20;28.40;;;;;;6235029;28;83562;-64
2021/04/26 15:10:52;;;;;;;3.13;1.98;;;23.20;28.60;;;;;;6231161;28;80474;-67
2021/04/26 15:13:53;;;;;;;3.80;2.25;;;23.20;28.40;;;;;;6229742;28;82392;-65
2021/04/26 15:16:53;;;;;;;6.13;2.42;;;23.20;28.00;;;;;;6217998;28;82834;-66
2021/04/26 15:19:54;;;;;;;3.22;2.10;;;23.20;27.80;;;;;;6210012;28;84787;-65
2021/04/26 15:22:54;;;;;;;4.68;2.17;;;23.20;28.20;;;;;;6228434;28;81380;-66
2021/04/26 15:25:55;;;;;;;4.68;2.20;;;23.20;28.20;;;;;;6224739;28;82687;-64
2021/04/26 15:28:56;;;;;;;3.05;2.03;;;23.20;28.10;;;;;;6226091;28;80398;-64
2021/04/26 15:31:56;;;;;;;3.30;2.40;;;23.10;28.10;;;;;;6233711;28;81139;-64
2021/04/26 15:34:56;;;;;;;2.65;2.08;;;23.10;28.00;;;;;;6195032;28;85057;-65
2021/04/26 15:37:57;;;;;;;3.97;2.40;;;23.20;28.00;;;;;;6187553;28;80804;-65